Time;durP1;ratioP1;P1;durP2;ratioP2;P2;SDS_P1;SDS_P2;PMS_P1;PMS_P2;Temp;Humidity;BMP_temperature;BMP_pressure;BME280_temperature;BME280_humidity;BME280_pressure;Samples;Min_cycle;Max_cycle;Signal;HPM_P1;HPM_P2
2023/02/11 00:01:24;;;;;;;18.48;10.27;;;;;;;0.10;59.69;99746.53;5075869;28;20071;-48
2023/02/11 00:03:50;;;;;;;22.45;10.80;;;;;;;0.02;59.92;99753.88;5075948;28;20043;-50
2023/02/11 00:06:15;;;;;;;20.10;10.35;;;;;;;0.05;59.74;99750.25;5075745;28;20036;-49
2023/02/11 00:08:41;;;;;;;21.58;9.88;;;;;;;0.06;59.77;99741.44;5075986;28;20024;-57
2023/02/11 00:11:06;;;;;;;20.98;10.27;;;;;;;0.08;59.26;99753.63;5076186;28;20040;-48
2023/02/11 00:13:32;;;;;;;23.10;9.77;;;;;;;0.03;59.69;99745.06;5075645;28;20033;-48
2023/02/11 00:15:58;;;;;;;25.63;10.57;;;;;;;-0.07;59.63;99738.41;5075758;28;20071;-48
2023/02/11 00:18:23;;;;;;;26.73;11.23;;;;;;;-0.07;59.96;99744.53;5075812;28;20032;-46
2023/02/11 00:20:49;;;;;;;20.00;10.23;;;;;;;-0.24;59.97;99724.13;5075357;28;20032;-48
2023/02/11 00:23:14;;;;;;;22.90;10.20;;;;;;;-0.22;60.42;99753.88;5075688;28;20404;-49
2023/02/11 00:25:44;;;;;;;22.17;10.10;;;;;;;-0.34;60.21;99746.44;5075980;28;20391;-48
2023/02/11 00:28:11;;;;;;;18.40;9.77;;;;;;;-0.39;60.59;99756.28;5075563;28;20035;-49
2023/02/11 00:30:37;;;;;;;19.77;10.60;;;;;;;-0.45;60.58;99745.06;5075422;28;20033;-50
2023/02/11 00:33:02;;;;;;;24.95;10.32;;;;;;;-0.57;60.95;99756.00;5075811;28;20391;-47
2023/02/11 00:35:28;;;;;;;23.25;10.18;;;;;;;-0.66;61.37;99762.44;5075083;28;20115;-46
2023/02/11 00:37:54;;;;;;;23.85;10.15;;;;;;;-0.79;61.55;99751.50;5075305;28;20021;-48
2023/02/11 00:40:19;;;;;;;23.48;9.98;;;;;;;-0.97;61.67;99750.38;5075600;28;20032;-50
2023/02/11 00:42:45;;;;;;;18.95;9.52;;;;;;;-1.02;62.04;99755.78;5075178;28;20044;-46
2023/02/11 00:45:11;;;;;;;21.20;9.35;;;;;;;-1.10;62.29;99762.19;5075311;28;20340;-51
2023/02/11 00:47:37;;;;;;;21.02;9.30;;;;;;;-1.25;62.29;99753.06;5075393;28;20051;-47
2023/02/11 00:50:04;;;;;;;19.42;9.77;;;;;;;-1.27;62.89;99762.75;5075381;28;20020;-49
2023/02/11 00:52:33;;;;;;;19.33;9.50;;;;;;;-1.30;62.85;99761.97;5075092;28;20036;-47
2023/02/11 00:54:58;;;;;;;21.90;9.65;;;;;;;-1.37;62.62;99760.44;5074818;28;20094;-49
2023/02/11 00:57:23;;;;;;;16.73;8.60;;;;;;;-1.45;62.86;99762.44;5075241;28;20028;-47
2023/02/11 00:59:49;;;;;;;17.33;9.05;;;;;;;-1.47;63.35;99765.13;5075220;28;20363;-45
2023/02/11 01:02:15;;;;;;;20.92;8.95;;;;;;;-1.57;63.03;99762.84;5074903;28;20052;-49
2023/02/11 01:04:41;;;;;;;18.50;8.90;;;;;;;-1.66;63.37;99767.50;5075001;28;20028;-48
2023/02/11 01:07:07;;;;;;;16.77;8.27;;;;;;;-1.60;63.84;99761.16;5075189;28;20047;-48
2023/02/11 01:09:32;;;;;;;20.73;8.07;;;;;;;-1.60;63.15;99767.28;5075114;28;20025;-47
2023/02/11 01:11:58;;;;;;;15.98;8.10;;;;;;;-1.68;63.50;99761.44;5074721;28;20020;-49
2023/02/11 01:14:23;;;;;;;16.00;8.20;;;;;;;-1.69;63.60;99780.69;5074554;28;20419;-49
2023/02/11 01:16:49;;;;;;;17.95;8.82;;;;;;;-1.75;63.37;99781.75;5075017;28;20494;-46
2023/02/11 01:19:14;;;;;;;16.15;7.90;;;;;;;-1.79;63.87;99787.13;5075132;28;20100;-49
2023/02/11 01:21:40;;;;;;;18.98;8.35;;;;;;;-1.82;64.09;99782.00;5074532;28;20115;-49
2023/02/11 01:24:05;;;;;;;17.85;7.65;;;;;;;-1.84;63.62;99789.06;5074286;28;20199;-49
2023/02/11 01:26:31;;;;;;;17.45;7.78;;;;;;;-1.84;63.62;99786.44;5074841;28;20108;-50
2023/02/11 01:28:58;;;;;;;23.75;8.20;;;;;;;-1.91;63.57;99785.75;5075005;28;20029;-48
2023/02/11 01:31:24;;;;;;;17.60;7.57;;;;;;;-1.94;64.25;99796.34;5074278;28;20367;-46
2023/02/11 01:33:49;;;;;;;18.05;7.57;;;;;;;-1.93;64.51;99788.44;5074122;28;20039;-46
2023/02/11 01:36:15;;;;;;;18.73;7.70;;;;;;;-1.98;64.21;99790.31;5074819;28;20052;-46
2023/02/11 01:38:40;;;;;;;18.55;7.65;;;;;;;-2.18;64.58;99762.03;5074580;28;20509;-45
2023/02/11 01:41:09;;;;;;;13.45;6.45;;;;;;;-2.02;64.02;99799.19;5074235;28;20374;-46
2023/02/11 01:43:42;;;;;;;19.60;7.60;;;;;;;-2.00;64.39;99797.38;5073907;28;20116;-47
2023/02/11 01:46:40;;;;;;;14.70;7.10;;;;;;;-1.98;63.98;99798.19;5074326;28;20037;-49
2023/02/11 01:49:11;;;;;;;16.45;7.55;;;;;;;-2.07;64.10;99793.22;5051170;28;20044;-49
2023/02/11 01:51:48;;;;;;;14.50;7.15;;;;;;;-2.06;64.10;99797.56;5072752;28;20385;-47
2023/02/11 01:57:23;;;;;;;14.02;6.22;;;;;;;-2.08;63.97;99797.59;5073774;28;20082;-49
2023/02/11 02:00:10;;;;;;;13.98;5.70;;;;;;;-2.06;63.93;99798.41;5073832;28;20039;-47
2023/02/11 02:02:45;;;;;;;14.20;6.28;;;;;;;-2.07;63.82;99796.69;5073546;28;20183;-48
2023/02/11 02:05:21;;;;;;;15.97;6.33;;;;;;;-2.04;63.42;99790.50;5073606;28;20351;-49
2023/02/11 02:08:02;;;;;;;11.43;5.28;;;;;;;-1.92;63.36;99784.91;5073967;28;20253;-46
2023/02/11 02:10:29;;;;;;;14.18;5.88;;;;;;;-1.80;62.99;99781.06;5072761;28;20123;-50
2023/02/11 02:12:54;;;;;;;16.00;5.80;;;;;;;-1.59;61.93;99791.78;5073795;28;20029;-50
2023/02/11 02:15:44;;;;;;;12.45;5.30;;;;;;;-1.43;61.83;99797.44;5073145;28;20115;-49
2023/02/11 02:18:28;;;;;;;10.63;4.90;;;;;;;-1.24;61.57;99792.44;5073416;28;20107;-48
2023/02/11 02:21:21;;;;;;;11.45;4.22;;;;;;;-1.12;61.16;99792.94;5073624;28;20463;-50
2023/02/11 02:24:14;;;;;;;12.07;5.38;;;;;;;-1.00;60.35;99795.16;5073227;28;20037;-48
2023/02/11 02:26:45;;;;;;;14.43;5.13;;;;;;;-0.96;60.02;99799.41;5073421;28;20044;-47
2023/02/11 02:29:21;;;;;;;9.23;4.38;;;;;;;-0.86;59.81;99797.31;5073352;28;20413;-48
2023/02/11 02:32:15;;;;;;;10.52;4.00;;;;;;;-0.75;59.93;99795.19;5073283;28;20032;-47
2023/02/11 02:35:12;;;;;;;10.38;4.53;;;;;;;-0.63;59.55;99793.06;5073058;28;20045;-48
2023/02/11 02:37:50;;;;;;;10.77;4.40;;;;;;;-0.59;59.09;99797.28;5070070;28;20040;-47
2023/02/11 02:40:22;;;;;;;14.60;4.25;;;;;;;-0.53;58.59;99804.94;5072966;28;20451;-50
2023/02/11 02:42:49;;;;;;;12.38;4.28;;;;;;;-0.52;58.47;99801.41;5073217;28;20056;-48
2023/02/11 02:45:15;;;;;;;14.98;4.72;;;;;;;-0.47;58.83;99796.00;5073693;28;20040;-48
2023/02/11 02:47:41;;;;;;;13.25;4.60;;;;;;;-0.38;58.39;99797.44;5072909;28;20040;-45
2023/02/11 02:50:08;;;;;;;14.40;5.07;;;;;;;-0.37;58.57;99801.78;5072667;28;20046;-47
2023/02/11 02:52:49;;;;;;;11.68;4.93;;;;;;;-0.35;58.46;99794.69;5073263;28;20059;-49
2023/02/11 02:55:17;;;;;;;10.95;4.60;;;;;;;-0.37;58.41;99796.53;5073326;28;20045;-49
2023/02/11 02:58:01;;;;;;;10.82;4.53;;;;;;;-0.33;58.75;99793.75;5072741;28;20471;-46
2023/02/11 03:00:51;;;;;;;11.38;4.20;;;;;;;-0.32;58.73;99784.94;5072601;28;20123;-48
2023/02/11 03:03:46;;;;;;;8.63;4.03;;;;;;;-0.33;58.60;99791.09;5073313;28;20359;-48
2023/02/11 03:06:22;;;;;;;11.65;4.20;;;;;;;-0.37;58.19;99789.47;5072951;28;20036;-47
2023/02/11 03:08:59;;;;;;;9.23;3.97;;;;;;;-0.34;58.26;99778.88;5072891;28;20489;-48
2023/02/11 03:11:26;;;;;;;11.95;4.10;;;;;;;-0.41;58.03;99785.25;5072925;28;20035;-46
2023/02/11 03:13:53;;;;;;;10.88;4.35;;;;;;;-0.51;58.20;99804.91;5072948;28;20039;-53
2023/02/11 03:16:25;;;;;;;9.48;4.53;;;;;;;-0.60;58.05;99801.69;5072888;28;20033;-46
2023/02/11 03:19:19;;;;;;;11.82;4.72;;;;;;;-0.60;58.83;99800.81;5054964;28;20036;-54
2023/02/11 03:21:47;;;;;;;11.10;4.60;;;;;;;-0.74;58.47;99799.53;5070458;28;20047;-46
2023/02/11 03:24:22;;;;;;;11.52;3.97;;;;;;;-0.78;58.65;99795.28;5072591;28;20509;-49
2023/02/11 03:26:56;;;;;;;13.18;4.15;;;;;;;-0.80;58.70;99786.59;5072782;28;20055;-47
2023/02/11 03:29:48;;;;;;;8.98;3.85;;;;;;;-0.70;59.17;99788.94;5072384;28;20509;-47
2023/02/11 03:32:24;;;;;;;8.70;3.50;;;;;;;-0.75;58.44;99789.06;5072767;28;20381;-49
2023/02/11 03:35:18;;;;;;;10.60;4.18;;;;;;;-0.83;58.37;99791.13;5073157;28;20036;-49
2023/02/11 03:38:14;;;;;;;10.20;3.75;;;;;;;-0.83;58.63;99781.44;5070088;28;20052;-46
2023/02/11 03:40:44;;;;;;;7.80;3.70;;;;;;;-0.89;58.48;99772.00;5072327;28;20025;-50
2023/02/11 03:43:29;;;;;;;12.93;3.63;;;;;;;-0.86;58.66;99786.81;5072762;28;20053;-49
2023/02/11 03:45:55;;;;;;;10.07;3.22;;;;;;;-0.87;58.50;99772.78;5072309;28;20127;-49
2023/02/11 03:48:29;;;;;;;13.05;3.63;;;;;;;-0.89;58.35;99782.50;5072335;28;20497;-50
2023/02/11 03:50:58;;;;;;;9.60;3.15;;;;;;;-0.90;58.29;99779.94;5072324;28;20028;-49
2023/02/11 03:53:24;;;;;;;11.52;3.28;;;;;;;-0.95;58.12;99768.75;5072054;28;20025;-61
2023/02/11 03:55:52;;;;;;;8.02;2.95;;;;;;;-0.94;58.30;99768.66;5072485;28;20052;-50
2023/02/11 03:58:18;;;;;;;6.95;3.10;;;;;;;-1.01;58.24;99775.06;5072090;28;20028;-50
2023/02/11 04:00:44;;;;;;;8.23;3.03;;;;;;;-1.06;58.49;99777.81;5072096;28;20355;-52
2023/02/11 04:03:10;;;;;;;7.45;3.13;;;;;;;-1.14;58.62;99774.59;5072156;28;20025;-49
2023/02/11 04:05:37;;;;;;;10.13;2.90;;;;;;;-1.17;58.53;99764.19;5071930;28;20047;-46
2023/02/11 04:08:03;;;;;;;6.57;2.65;;;;;;;-1.24;59.17;99771.41;5072365;28;20530;-48
2023/02/11 04:10:29;;;;;;;8.82;3.13;;;;;;;-1.34;58.74;99772.59;5071904;28;20099;-48
2023/02/11 04:12:54;;;;;;;8.05;3.00;;;;;;;-1.67;59.26;99726.41;5072164;28;20024;-47
2023/02/11 04:15:20;;;;;;;6.38;3.13;;;;;;;-1.83;59.64;99736.50;5072332;28;20093;-47
2023/02/11 04:17:45;;;;;;;7.93;3.05;;;;;;;-1.74;59.76;99766.84;5072035;28;20117;-48
2023/02/11 04:20:11;;;;;;;11.18;3.40;;;;;;;-1.79;60.10;99766.13;5071793;28;20032;-46
2023/02/11 04:22:37;;;;;;;8.15;3.10;;;;;;;-1.92;60.19;99758.66;5071137;28;20028;-48
2023/02/11 04:25:04;;;;;;;9.38;2.90;;;;;;;-2.03;60.38;99752.84;5072119;28;20109;-50
2023/02/11 04:27:30;;;;;;;8.65;3.08;;;;;;;-2.07;61.03;99757.31;5071562;28;20059;-47
2023/02/11 04:29:55;;;;;;;6.88;3.08;;;;;;;-2.15;61.18;99772.44;5071922;28;20503;-48
2023/02/11 04:32:21;;;;;;;7.53;3.00;;;;;;;-2.20;60.90;99769.94;5072061;28;20036;-48
2023/02/11 04:34:47;;;;;;;10.10;3.42;;;;;;;-2.26;60.89;99764.03;5074122;28;20135;-47
2023/02/11 04:37:13;;;;;;;8.02;3.42;;;;;;;-2.33;61.17;99761.56;5075270;28;20517;-48
2023/02/11 04:39:38;;;;;;;9.88;3.28;;;;;;;-2.36;61.61;99755.56;5075734;28;20043;-46
2023/02/11 04:42:04;;;;;;;9.88;3.60;;;;;;;-2.38;61.74;99763.47;5075380;28;20378;-46
2023/02/11 04:44:30;;;;;;;10.02;3.50;;;;;;;-2.42;61.59;99756.59;5074921;28;20037;-46
2023/02/11 04:46:55;;;;;;;9.90;3.50;;;;;;;-2.40;61.40;99756.56;5075628;28;20036;-46
2023/02/11 04:49:21;;;;;;;12.77;3.35;;;;;;;-2.45;61.76;99770.63;5075584;28;20056;-47
2023/02/11 04:51:47;;;;;;;9.27;3.22;;;;;;;-2.45;61.79;99765.41;5075223;28;20553;-46
2023/02/11 04:54:12;;;;;;;8.57;3.17;;;;;;;-2.37;61.69;99770.44;5074846;28;20032;-46
2023/02/11 04:56:38;;;;;;;8.77;3.17;;;;;;;-2.34;61.77;99767.72;5075233;28;20037;-47
2023/02/11 04:59:04;;;;;;;8.73;3.42;;;;;;;-2.28;61.91;99771.94;5075397;28;20040;-48
2023/02/11 05:01:30;;;;;;;8.13;3.92;;;;;;;-2.31;61.37;99749.28;5075211;28;20049;-49
2023/02/11 05:03:56;;;;;;;6.57;3.20;;;;;;;-2.10;61.42;99761.81;5074893;28;20157;-49
2023/02/11 05:06:22;;;;;;;6.60;2.90;;;;;;;-2.03;60.61;99771.22;5074718;28;20040;-46
2023/02/11 05:08:47;;;;;;;8.52;2.80;;;;;;;-2.01;60.67;99766.78;5075217;28;20044;-46
2023/02/11 05:11:23;;;;;;;8.38;2.80;;;;;;;-1.98;60.30;99761.44;5074937;28;20397;-47
2023/02/11 05:13:48;;;;;;;10.73;3.38;;;;;;;-1.97;60.57;99760.53;5074487;28;20618;-48
2023/02/11 05:16:15;;;;;;;7.95;3.22;;;;;;;-1.94;60.74;99773.56;5074648;28;20083;-50
2023/02/11 05:18:42;;;;;;;9.88;3.33;;;;;;;-1.89;60.58;99765.56;5074147;28;20380;-50
2023/02/11 05:21:09;;;;;;;6.82;3.40;;;;;;;-1.90;60.10;99762.09;5074765;28;20051;-48
2023/02/11 05:23:35;;;;;;;10.60;3.25;;;;;;;-1.77;60.13;99766.94;5074737;28;20423;-51
2023/02/11 05:26:01;;;;;;;9.98;3.03;;;;;;;-1.76;59.79;99747.66;5074475;28;20043;-47
2023/02/11 05:28:27;;;;;;;9.10;2.83;;;;;;;-1.53;59.74;99762.72;5075053;28;20059;-49
2023/02/11 05:30:52;;;;;;;9.30;3.03;;;;;;;-1.55;58.92;99745.28;5074693;28;20035;-49
2023/02/11 05:33:18;;;;;;;8.20;2.90;;;;;;;-1.32;59.23;99769.03;5074371;28;20438;-49
2023/02/11 05:35:43;;;;;;;10.07;3.33;;;;;;;-1.17;58.39;99766.81;5074241;28;20032;-50
2023/02/11 05:38:09;;;;;;;10.98;3.17;;;;;;;-1.12;58.78;99759.66;5074681;28;20025;-50
2023/02/11 05:40:34;;;;;;;14.55;3.00;;;;;;;-1.07;58.39;99762.13;5074391;28;20024;-47
2023/02/11 05:43:00;;;;;;;9.20;2.88;;;;;;;-1.01;58.48;99767.16;5074035;28;20052;-47
2023/02/11 05:45:25;;;;;;;7.28;2.72;;;;;;;-0.93;58.23;99767.75;5073435;28;20033;-51
2023/02/11 05:47:51;;;;;;;7.22;2.78;;;;;;;-0.84;57.92;99763.97;5073986;28;20031;-49
2023/02/11 05:50:16;;;;;;;8.43;2.88;;;;;;;-0.81;57.61;99753.34;5074039;28;21066;-51
2023/02/11 05:52:42;;;;;;;6.28;2.78;;;;;;;-0.69;57.52;99761.72;5073921;28;20028;-51
2023/02/11 05:55:07;;;;;;;11.10;3.20;;;;;;;-0.55;57.24;99758.59;5073852;28;20029;-50
2023/02/11 05:57:33;;;;;;;10.57;3.45;;;;;;;-0.49;57.05;99769.72;5073761;28;20051;-47
2023/02/11 05:59:58;;;;;;;7.32;2.70;;;;;;;-0.63;57.08;99729.94;5074072;28;20029;-47
2023/02/11 06:02:24;;;;;;;11.70;3.20;;;;;;;-0.40;56.85;99765.06;5073622;28;20135;-47
2023/02/11 06:04:49;;;;;;;7.10;2.90;;;;;;;-0.37;56.50;99770.22;5073772;28;20040;-49
2023/02/11 06:07:15;;;;;;;8.40;3.38;;;;;;;-0.30;56.21;99756.78;5073552;28;20039;-51
2023/02/11 06:09:40;;;;;;;7.72;2.65;;;;;;;-0.30;55.93;99759.41;5073582;28;20056;-53
2023/02/11 06:12:06;;;;;;;6.65;2.75;;;;;;;-0.36;55.95;99759.66;5073637;28;20060;-47
2023/02/11 06:14:33;;;;;;;9.57;2.97;;;;;;;-0.35;56.22;99760.50;5073348;28;20038;-50
2023/02/11 06:16:58;;;;;;;7.57;3.33;;;;;;;-0.34;56.10;99751.69;5073560;28;20431;-49
2023/02/11 06:19:24;;;;;;;10.57;2.88;;;;;;;-0.35;56.50;99771.91;5073512;28;20024;-49
2023/02/11 06:21:49;;;;;;;8.98;3.00;;;;;;;-0.29;56.20;99755.00;5073178;28;20114;-48
2023/02/11 06:24:15;;;;;;;9.48;3.70;;;;;;;-0.24;56.42;99758.34;5073080;28;20182;-49
2023/02/11 06:26:40;;;;;;;9.70;3.42;;;;;;;-0.17;55.97;99764.22;5073604;28;20024;-46
2023/02/11 06:29:06;;;;;;;12.60;4.22;;;;;;;-0.10;55.59;99755.19;5073308;28;20076;-48
2023/02/11 06:31:31;;;;;;;9.45;3.92;;;;;;;-0.18;56.17;99767.75;5073184;28;20103;-47
2023/02/11 06:33:58;;;;;;;9.38;3.42;;;;;;;-0.36;55.89;99721.94;5073239;28;20037;-49
2023/02/11 06:36:23;;;;;;;12.50;4.22;;;;;;;-0.15;56.06;99763.25;5073518;28;20024;-46
2023/02/11 06:38:49;;;;;;;10.98;3.53;;;;;;;-0.08;55.43;99755.13;5072976;28;20131;-48
2023/02/11 06:41:16;;;;;;;9.68;3.80;;;;;;;0.01;55.60;99752.16;5072751;28;20488;-50
2023/02/11 06:43:42;;;;;;;8.15;3.47;;;;;;;0.06;55.51;99752.84;5073383;28;20036;-51
2023/02/11 06:46:08;;;;;;;12.20;3.90;;;;;;;-0.09;55.14;99716.56;5073362;28;20054;-48
2023/02/11 06:48:34;;;;;;;15.02;4.60;;;;;;;0.26;54.73;99753.84;5072049;28;20442;-47
2023/02/11 06:51:02;;;;;;;11.70;3.90;;;;;;;0.34;54.91;99749.13;5073199;28;20036;-48
2023/02/11 06:53:28;;;;;;;12.07;4.22;;;;;;;0.43;54.18;99748.75;5073282;28;20031;-50
2023/02/11 06:55:53;;;;;;;14.27;4.78;;;;;;;0.60;54.00;99754.25;5073120;28;20127;-48
2023/02/11 06:58:19;;;;;;;8.82;3.75;;;;;;;0.69;53.62;99760.00;5072607;28;20112;-50
2023/02/11 07:00:44;;;;;;;9.18;4.03;;;;;;;0.74;53.18;99757.19;5072851;28;20028;-47
2023/02/11 07:03:09;;;;;;;8.80;3.97;;;;;;;0.63;53.85;99749.72;5072876;28;20125;-50
2023/02/11 07:05:37;;;;;;;10.75;4.45;;;;;;;0.59;54.12;99757.81;5073001;28;20104;-53
2023/02/11 07:08:03;;;;;;;12.15;4.30;;;;;;;0.66;54.42;99752.22;5072781;28;20402;-47
2023/02/11 07:10:28;;;;;;;10.50;4.53;;;;;;;1.47;52.82;99758.53;5072577;28;20063;-48
2023/02/11 07:12:54;;;;;;;10.88;4.30;;;;;;;3.43;49.34;99755.41;5073164;28;20316;-49
2023/02/11 07:15:19;;;;;;;11.98;4.45;;;;;;;7.38;41.36;99747.84;5072985;28;20413;-49
2023/02/11 07:17:45;;;;;;;10.77;4.25;;;;;;;9.98;35.62;99735.91;5072461;28;20112;-47
2023/02/11 07:20:13;;;;;;;10.30;4.00;;;;;;;11.05;33.54;99740.66;5072598;28;20024;-47
2023/02/11 07:22:38;;;;;;;11.75;5.53;;;;;;;11.53;32.04;99726.88;5072791;28;20040;-48
2023/02/11 07:25:04;;;;;;;11.85;5.30;;;;;;;11.80;31.59;99742.38;5073107;28;20029;-50
2023/02/11 07:27:30;;;;;;;11.90;5.32;;;;;;;10.48;32.71;99740.88;5072480;28;20031;-49
2023/02/11 07:29:55;;;;;;;11.73;5.28;;;;;;;9.23;35.20;99739.97;5072213;28;20029;-48
2023/02/11 07:32:20;;;;;;;10.15;4.53;;;;;;;9.27;34.96;99736.97;5072447;28;20112;-48
2023/02/11 07:34:47;;;;;;;8.57;4.50;;;;;;;9.42;34.92;99723.41;5072589;28;20111;-48
2023/02/11 07:37:12;;;;;;;10.27;5.13;;;;;;;9.56;33.94;99725.00;5072365;28;20469;-49
2023/02/11 07:39:38;;;;;;;13.05;5.53;;;;;;;10.45;32.74;99717.03;5072232;28;20036;-51
2023/02/11 07:42:04;;;;;;;12.73;5.32;;;;;;;10.12;32.78;99720.59;5072090;28;20132;-49
2023/02/11 07:44:29;;;;;;;13.10;5.50;;;;;;;9.21;33.97;99715.19;5072384;28;20463;-50
2023/02/11 07:46:55;;;;;;;13.40;5.40;;;;;;;8.98;34.48;99720.47;5072390;28;20362;-48
2023/02/11 07:49:20;;;;;;;15.15;5.50;;;;;;;8.80;34.67;99717.38;5072092;28;20429;-47
2023/02/11 07:51:47;;;;;;;11.68;5.55;;;;;;;8.34;34.96;99719.78;5072433;28;20029;-47
2023/02/11 07:54:13;;;;;;;14.82;5.65;;;;;;;7.36;36.63;99723.13;5071770;28;20355;-52
2023/02/11 07:56:38;;;;;;;10.90;5.55;;;;;;;6.31;38.11;99726.50;5071235;28;20024;-50
2023/02/11 07:59:04;;;;;;;11.70;5.53;;;;;;;5.26;40.06;99720.53;5072633;28;20048;-48
2023/02/11 08:01:30;;;;;;;11.60;6.07;;;;;;;4.48;42.02;99729.47;5071783;28;20107;-47
2023/02/11 08:03:57;;;;;;;12.25;5.68;;;;;;;3.87;43.07;99731.00;5072079;28;20037;-50
2023/02/11 08:06:25;;;;;;;10.77;5.47;;;;;;;3.23;44.10;99725.53;5072366;28;20455;-51
2023/02/11 08:08:51;;;;;;;15.15;6.68;;;;;;;2.55;45.51;99723.63;5073022;28;20086;-47
2023/02/11 08:11:19;;;;;;;14.35;6.57;;;;;;;2.20;46.33;99726.22;5075898;28;20064;-52
2023/02/11 08:13:45;;;;;;;16.33;7.22;;;;;;;1.91;47.22;99712.56;5076048;28;20435;-47
2023/02/11 08:16:32;;;;;;;16.85;7.07;;;;;;;1.95;47.36;99720.28;5075940;28;20028;-49
2023/02/11 08:19:00;;;;;;;15.20;6.45;;;;;;;1.84;47.72;99707.59;5075753;28;20040;-55
2023/02/11 08:21:27;;;;;;;18.38;7.25;;;;;;;1.90;48.02;99717.00;5075771;28;20116;-48
2023/02/11 08:23:54;;;;;;;15.00;6.93;;;;;;;2.03;47.33;99706.72;5076095;28;20025;-48
2023/02/11 08:26:22;;;;;;;15.32;7.35;;;;;;;2.15;47.07;99706.13;5075313;28;20033;-50
2023/02/11 08:28:50;;;;;;;16.00;9.32;;;;;;;2.17;47.23;99706.06;5075326;28;20031;-49
2023/02/11 08:31:22;;;;;;;15.70;6.95;;;;;;;2.12;47.14;99708.94;5075921;28;20043;-55
2023/02/11 08:33:48;;;;;;;16.42;7.38;;;;;;;1.98;47.67;99693.72;5075316;28;20385;-53
2023/02/11 08:36:15;;;;;;;17.00;7.53;;;;;;;1.98;47.45;99703.47;5075351;28;20047;-52
2023/02/11 08:38:41;;;;;;;16.38;7.45;;;;;;;2.03;47.73;99695.28;5075740;28;20066;-58
2023/02/11 08:41:07;;;;;;;15.98;7.47;;;;;;;2.16;47.20;99693.78;5075874;28;20044;-53
2023/02/11 08:43:33;;;;;;;15.43;7.47;;;;;;;2.21;47.49;99683.03;5075182;28;20123;-51
2023/02/11 08:45:59;;;;;;;15.77;6.82;;;;;;;2.22;47.14;99674.16;5075303;28;20068;-52
2023/02/11 08:48:27;;;;;;;14.90;6.68;;;;;;;2.20;47.14;99676.88;5075438;28;20120;-51
2023/02/11 08:50:53;;;;;;;15.60;6.68;;;;;;;2.08;47.12;99672.19;5075574;28;20374;-49
2023/02/11 08:53:19;;;;;;;10.55;6.22;;;;;;;1.91;48.08;99668.56;5075005;28;20028;-48
2023/02/11 08:55:49;;;;;;;13.80;6.75;;;;;;;1.88;48.20;99660.78;5074985;28;20032;-48
2023/02/11 08:58:14;;;;;;;18.63;7.20;;;;;;;1.84;48.96;99660.06;5075484;28;20031;-48
2023/02/11 09:00:41;;;;;;;14.95;7.25;;;;;;;1.82;48.53;99661.94;5075593;28;20025;-52
2023/02/11 09:03:07;;;;;;;18.38;6.78;;;;;;;1.67;48.85;99645.03;5075202;28;20036;-50
2023/02/11 09:05:32;;;;;;;16.20;6.97;;;;;;;1.46;49.29;99633.69;5074889;28;20090;-49
2023/02/11 09:07:58;;;;;;;13.90;7.25;;;;;;;1.25;49.68;99622.31;5075211;28;20052;-52
2023/02/11 09:10:23;;;;;;;16.73;7.40;;;;;;;1.10;50.23;99613.31;5075216;28;20043;-52
2023/02/11 09:12:49;;;;;;;14.60;6.70;;;;;;;0.99;50.10;99598.84;5074929;28;20451;-46
2023/02/11 09:15:14;;;;;;;14.57;6.32;;;;;;;0.98;50.54;99594.50;5074539;28;20096;-49
2023/02/11 09:17:39;;;;;;;15.82;6.93;;;;;;;0.95;50.90;99593.78;5075054;28;20435;-49
2023/02/11 09:20:05;;;;;;;13.18;6.47;;;;;;;0.86;50.74;99589.78;5075034;28;20431;-52
2023/02/11 09:22:31;;;;;;;17.15;6.63;;;;;;;0.83;50.73;99592.53;5074680;28;20052;-49
2023/02/11 09:24:56;;;;;;;17.05;6.47;;;;;;;0.74;51.34;99588.53;5074421;28;20112;-49
2023/02/11 09:27:22;;;;;;;15.27;6.72;;;;;;;0.76;51.38;99572.66;5074540;28;20040;-50
2023/02/11 09:29:47;;;;;;;15.00;6.70;;;;;;;0.66;51.45;99548.50;5074749;28;20044;-49
2023/02/11 09:32:13;;;;;;;14.50;5.95;;;;;;;0.74;51.48;99549.00;5074284;28;20055;-48
2023/02/11 09:34:38;;;;;;;15.98;6.47;;;;;;;0.76;51.55;99554.22;5074179;28;20367;-48
2023/02/11 09:37:03;;;;;;;12.48;5.70;;;;;;;0.82;51.39;99559.19;5074226;28;20033;-47
2023/02/11 09:39:29;;;;;;;15.55;6.53;;;;;;;0.65;52.22;99545.00;5073897;28;20029;-51
2023/02/11 09:42:00;;;;;;;13.15;5.80;;;;;;;0.61;52.36;99559.22;5074081;28;20131;-53
2023/02/11 09:44:29;;;;;;;11.35;6.30;;;;;;;0.47;52.85;99543.16;5073968;28;20463;-55
2023/02/11 09:46:58;;;;;;;15.65;6.35;;;;;;;0.49;52.85;99559.78;5073282;28;20029;-50
2023/02/11 09:49:42;;;;;;;15.63;6.65;;;;;;;0.48;52.96;99551.00;5074117;28;20389;-49
2023/02/11 09:52:17;;;;;;;11.75;5.55;;;;;;;0.53;53.11;99545.53;5074143;28;20462;-53
2023/02/11 09:54:54;;;;;;;18.20;6.13;;;;;;;0.54;53.20;99548.09;5074589;28;20032;-52
2023/02/11 09:57:21;;;;;;;16.45;6.05;;;;;;;0.42;53.32;99546.84;5073888;28;20074;-47
2023/02/11 09:59:48;;;;;;;12.73;5.35;;;;;;;0.33;53.92;99531.47;5074209;28;20031;-48
2023/02/11 10:02:28;;;;;;;13.80;5.57;;;;;;;0.37;54.05;99534.81;5074267;28;20439;-51
2023/02/11 10:05:18;;;;;;;12.75;6.00;;;;;;;0.40;54.15;99529.41;5073863;28;20469;-52
2023/02/11 10:08:02;;;;;;;12.73;6.00;;;;;;;0.32;54.18;99523.59;5073960;28;20414;-48
2023/02/11 10:11:00;;;;;;;11.30;5.38;;;;;;;0.46;53.97;99518.59;5073827;28;20044;-49
2023/02/11 10:14:01;;;;;;;11.52;5.45;;;;;;;0.51;53.97;99515.78;5073369;28;20112;-51
2023/02/11 10:17:00;;;;;;;13.27;5.20;;;;;;;0.49;54.24;99515.00;5073876;28;20044;-50
2023/02/11 10:19:45;;;;;;;14.13;5.70;;;;;;;0.47;54.49;99504.50;5073813;28;20024;-48
2023/02/11 10:22:17;;;;;;;16.58;6.35;;;;;;;0.47;54.40;99503.63;5072937;28;20040;-48
2023/02/11 10:24:51;;;;;;;12.20;5.50;;;;;;;0.55;54.50;99497.13;5073787;28;20111;-48
2023/02/11 10:27:21;;;;;;;13.50;6.55;;;;;;;0.59;54.31;99497.84;5073564;28;20029;-50
2023/02/11 10:30:01;;;;;;;16.88;6.85;;;;;;;0.74;53.99;99488.38;5073417;28;20058;-55
2023/02/11 10:32:46;;;;;;;13.20;5.90;;;;;;;0.62;54.51;99474.00;5072634;28;20052;-50
2023/02/11 10:35:20;;;;;;;13.63;6.10;;;;;;;0.62;54.47;99473.16;5073970;28;20071;-51
2023/02/11 10:37:46;;;;;;;15.23;5.78;;;;;;;0.64;54.10;99471.31;5073506;28;20443;-49
2023/02/11 10:40:25;;;;;;;14.13;6.20;;;;;;;0.66;54.11;99458.91;5073216;28;20522;-50
2023/02/11 10:42:53;;;;;;;17.00;6.38;;;;;;;0.63;54.11;99451.16;5073140;28;20044;-47
2023/02/11 10:45:29;;;;;;;15.25;6.40;;;;;;;0.70;54.02;99444.66;5073628;28;20032;-48
2023/02/11 10:47:55;;;;;;;16.02;6.28;;;;;;;0.76;53.64;99457.56;5073209;28;20459;-47
2023/02/11 10:50:24;;;;;;;15.65;6.47;;;;;;;0.78;53.59;99455.69;5072873;28;20025;-48
2023/02/11 10:52:49;;;;;;;15.60;6.70;;;;;;;0.71;53.47;99439.31;5073053;28;20362;-52
2023/02/11 10:55:23;;;;;;;12.27;6.15;;;;;;;0.54;53.72;99405.00;5073564;28;20039;-50
2023/02/11 10:57:55;;;;;;;14.73;6.68;;;;;;;0.74;54.07;99425.16;5073348;28;20032;-52
2023/02/11 11:00:35;;;;;;;15.63;6.35;;;;;;;0.85;54.01;99422.00;5072915;28;20029;-51
2023/02/11 11:03:03;;;;;;;15.00;6.40;;;;;;;0.90;53.52;99417.38;5073131;28;20044;-51
2023/02/11 11:05:32;;;;;;;20.73;6.72;;;;;;;1.10;53.01;99408.53;5073260;28;20040;-49
2023/02/11 11:08:06;;;;;;;19.17;7.18;;;;;;;1.03;53.16;99404.47;5072775;28;20098;-50
2023/02/11 11:10:42;;;;;;;15.73;6.60;;;;;;;1.09;52.77;99412.09;5072658;28;20107;-51
2023/02/11 11:13:32;;;;;;;19.60;6.70;;;;;;;1.19;53.05;99409.00;5072965;28;20047;-50
2023/02/11 11:16:12;;;;;;;16.55;6.45;;;;;;;1.21;52.57;99404.50;5073240;28;20470;-50
2023/02/11 11:18:42;;;;;;;16.70;6.72;;;;;;;1.00;52.85;99394.94;5071718;28;20028;-50
2023/02/11 11:21:13;;;;;;;13.27;6.72;;;;;;;0.97;53.28;99391.59;5072552;28;20028;-54
2023/02/11 11:23:39;;;;;;;13.15;7.13;;;;;;;0.97;52.66;99384.53;5072739;28;20024;-49
2023/02/11 11:26:13;;;;;;;15.05;7.75;;;;;;;1.04;52.57;99382.44;5072659;28;20051;-51
2023/02/11 11:29:10;;;;;;;17.55;7.65;;;;;;;1.06;52.91;99372.66;5071967;28;20417;-50
2023/02/11 11:31:49;;;;;;;17.80;7.85;;;;;;;1.05;52.82;99359.56;5072304;28;20032;-49
2023/02/11 11:34:25;;;;;;;20.83;8.10;;;;;;;1.03;52.75;99350.91;5072238;28;20049;-50
2023/02/11 11:36:51;;;;;;;18.45;8.80;;;;;;;1.06;52.58;99342.84;5072354;28;20024;-52
2023/02/11 11:39:21;;;;;;;15.05;7.53;;;;;;;1.07;52.28;99331.34;5072369;28;20370;-52
2023/02/11 11:41:56;;;;;;;19.98;7.60;;;;;;;1.06;52.39;99330.47;5072581;28;20522;-51
2023/02/11 11:44:25;;;;;;;;;;;;;;;1.35;52.25;99319.41;5074972;28;20459;-48
2023/02/11 11:47:14;;;;;;;16.45;8.63;;;;;;;1.14;52.26;99332.75;5076303;28;19912;-61